createdAt,value
2018-04-25T00:01:20.540Z,14.70
2018-04-25T00:03:48.614Z,14.70
2018-04-25T00:06:16.702Z,14.60
2018-04-25T00:08:44.774Z,14.60
2018-04-25T00:11:12.839Z,14.60
2018-04-25T00:13:40.910Z,14.60
2018-04-25T00:16:08.987Z,14.50
2018-04-25T00:18:37.078Z,14.40
2018-04-25T00:21:05.127Z,14.40
2018-04-25T00:23:33.208Z,14.40
2018-04-25T00:26:01.265Z,14.40
2018-04-25T00:28:29.330Z,14.30
2018-04-25T00:30:57.394Z,14.30
2018-04-25T00:33:25.470Z,14.20
2018-04-25T00:35:53.537Z,14.20
2018-04-25T00:38:21.618Z,14.10
2018-04-25T00:40:49.689Z,14.10
2018-04-25T00:43:17.766Z,14.00
2018-04-25T00:45:45.880Z,14.00
2018-04-25T00:48:13.918Z,14.00
2018-04-25T00:50:42.014Z,13.90
2018-04-25T00:53:10.067Z,13.90
2018-04-25T00:55:38.122Z,13.80
2018-04-25T00:58:06.169Z,13.80
2018-04-25T01:00:34.245Z,13.80
2018-04-25T01:03:02.278Z,13.70
2018-04-25T01:05:30.373Z,13.70
2018-04-25T01:07:58.437Z,13.70
2018-04-25T01:10:26.474Z,13.70
2018-04-25T01:12:54.547Z,13.70
2018-04-25T01:15:22.630Z,13.70
2018-04-25T01:17:51.449Z,13.60
2018-04-25T01:20:21.904Z,13.60
2018-04-25T01:22:49.941Z,13.60
2018-04-25T01:25:24.603Z,13.60
2018-04-25T01:28:21.266Z,13.60
2018-04-25T01:31:04.217Z,13.50
2018-04-25T01:33:34.671Z,13.50
2018-04-25T01:36:05.345Z,13.60
2018-04-25T01:38:33.419Z,13.60
2018-04-25T01:41:08.777Z,13.60
2018-04-25T01:43:37.737Z,13.60
2018-04-25T01:46:14.346Z,13.50
2018-04-25T01:48:56.822Z,13.40
2018-04-25T01:51:36.634Z,13.40
2018-04-25T01:54:16.466Z,13.40
2018-04-25T01:56:57.131Z,13.30
2018-04-25T01:59:37.063Z,13.30
2018-04-25T02:02:04.649Z,13.30
2018-04-25T02:04:32.695Z,13.30
2018-04-25T02:07:00.798Z,13.20
2018-04-25T02:09:41.297Z,13.20
2018-04-25T02:12:10.122Z,13.10
2018-04-25T02:14:38.203Z,13.10
2018-04-25T02:17:06.302Z,13.00
2018-04-25T02:19:34.358Z,13.00
2018-04-25T02:22:02.447Z,12.90
2018-04-25T02:24:30.521Z,12.90
2018-04-25T02:27:09.535Z,12.80
2018-04-25T02:29:37.591Z,12.80
2018-04-25T02:32:05.646Z,12.80
2018-04-25T02:34:33.728Z,12.80
2018-04-25T02:37:01.782Z,12.70
2018-04-25T02:39:29.854Z,12.70
2018-04-25T02:41:57.935Z,12.70
2018-04-25T02:44:25.976Z,12.70
2018-04-25T02:46:54.798Z,12.70
2018-04-25T02:49:22.889Z,12.70
2018-04-25T02:51:50.946Z,12.70
2018-04-25T02:54:19.027Z,12.70
2018-04-25T02:56:47.100Z,12.70
2018-04-25T02:59:15.195Z,12.70
2018-04-25T03:01:43.276Z,12.60
2018-04-25T03:04:11.341Z,12.60
2018-04-25T03:06:42.432Z,12.60
2018-04-25T03:09:11.269Z,12.60
2018-04-25T03:11:39.342Z,12.50
2018-04-25T03:14:07.414Z,12.50
2018-04-25T03:16:35.511Z,12.50
2018-04-25T03:19:03.553Z,12.40
2018-04-25T03:21:31.593Z,12.40
2018-04-25T03:23:59.685Z,12.50
2018-04-25T03:26:27.785Z,12.50
2018-04-25T03:28:55.834Z,12.40
2018-04-25T03:31:23.891Z,12.40
2018-04-25T03:33:51.950Z,12.40
2018-04-25T03:36:20.030Z,12.40
2018-04-25T03:38:48.145Z,12.40
2018-04-25T03:41:26.151Z,12.40
2018-04-25T03:43:54.222Z,12.40
2018-04-25T03:46:22.293Z,12.40
2018-04-25T03:48:50.366Z,12.40
2018-04-25T03:51:18.442Z,12.40
2018-04-25T03:53:46.518Z,12.40
2018-04-25T03:56:14.557Z,12.40
2018-04-25T03:58:42.618Z,12.40
2018-04-25T04:01:10.683Z,12.40
2018-04-25T04:03:38.697Z,12.40
2018-04-25T04:06:06.754Z,12.40
2018-04-25T04:08:35.574Z,12.30
2018-04-25T04:11:03.605Z,12.30
2018-04-25T04:13:31.662Z,12.30
2018-04-25T04:15:59.699Z,12.40
2018-04-25T04:18:27.774Z,12.40
2018-04-25T04:20:56.610Z,12.50
2018-04-25T04:23:33.850Z,12.40
2018-04-25T04:26:01.889Z,12.50
2018-04-25T04:28:29.958Z,12.50
2018-04-25T04:30:58.050Z,12.40
2018-04-25T04:33:26.923Z,12.40
2018-04-25T04:35:54.966Z,12.50
2018-04-25T04:38:23.044Z,12.50
2018-04-25T04:40:51.105Z,12.60
2018-04-25T04:43:19.165Z,12.60
2018-04-25T04:45:47.241Z,12.70
2018-04-25T04:48:15.314Z,12.70
2018-04-25T04:50:43.384Z,12.80
2018-04-25T04:53:11.449Z,12.80
2018-04-25T04:55:39.505Z,12.80
2018-04-25T04:58:07.590Z,12.80
2018-04-25T05:00:35.656Z,12.80
2018-04-25T05:03:03.729Z,12.90
2018-04-25T05:05:31.806Z,12.90
2018-04-25T05:08:00.621Z,13.00
2018-04-25T05:10:28.675Z,12.90
2018-04-25T05:12:57.498Z,13.10
2018-04-25T05:15:25.578Z,13.10
2018-04-25T05:17:53.642Z,13.10
2018-04-25T05:20:21.722Z,13.20
2018-04-25T05:22:49.817Z,13.30
2018-04-25T05:25:17.894Z,13.40
2018-04-25T05:27:45.966Z,13.50
2018-04-25T05:30:14.038Z,13.60
2018-04-25T05:32:42.093Z,13.60
2018-04-25T05:35:10.134Z,13.70
2018-04-25T05:37:38.235Z,13.80
2018-04-25T05:40:06.281Z,13.80
2018-04-25T05:42:34.334Z,13.90
2018-04-25T05:45:02.402Z,14.10
2018-04-25T05:47:30.441Z,14.20
2018-04-25T05:49:58.525Z,14.30
2018-04-25T05:52:26.576Z,14.40
2018-04-25T05:54:54.647Z,14.40
2018-04-25T05:57:22.694Z,14.50
2018-04-25T05:59:50.779Z,14.50
2018-04-25T06:02:18.870Z,14.60
2018-04-25T06:04:46.937Z,14.60
2018-04-25T06:07:15.098Z,14.60
2018-04-25T06:09:43.094Z,14.70
2018-04-25T06:12:11.154Z,14.70
2018-04-25T06:14:39.212Z,14.80
2018-04-25T06:17:07.285Z,14.80
2018-04-25T06:19:35.333Z,14.70
2018-04-25T06:22:03.391Z,14.60
2018-04-25T06:24:31.458Z,14.60
2018-04-25T06:27:00.269Z,14.60
2018-04-25T06:29:28.318Z,14.60
2018-04-25T06:31:57.149Z,14.50
2018-04-25T06:34:28.425Z,14.50
2018-04-25T06:36:56.501Z,14.40
2018-04-25T06:39:24.600Z,14.30
2018-04-25T06:41:52.647Z,14.20
2018-04-25T06:44:20.704Z,14.20
2018-04-25T06:46:48.769Z,14.20
2018-04-25T06:49:16.854Z,14.30
2018-04-25T06:51:57.518Z,14.30
2018-04-25T06:54:25.595Z,14.40
2018-04-25T06:56:53.641Z,14.50
2018-04-25T06:59:21.719Z,14.50
2018-04-25T07:01:49.790Z,14.60
2018-04-25T07:04:17.831Z,14.70
2018-04-25T07:06:49.063Z,14.80
2018-04-25T07:09:17.129Z,14.80
2018-04-25T07:11:53.166Z,14.90
2018-04-25T07:14:21.233Z,14.90
2018-04-25T07:16:49.287Z,15.00
2018-04-25T07:19:17.355Z,15.10
2018-04-25T07:21:50.381Z,15.10
2018-04-25T07:24:18.449Z,15.20
2018-04-25T07:26:46.522Z,15.30
2018-04-25T07:29:14.582Z,15.40
2018-04-25T07:31:42.672Z,15.50
2018-04-25T07:34:10.745Z,15.60
2018-04-25T07:36:39.615Z,15.80
2018-04-25T07:39:07.670Z,15.80
2018-04-25T07:41:35.796Z,16.00
2018-04-25T07:44:03.832Z,16.10
2018-04-25T07:46:31.918Z,16.20
2018-04-25T07:49:00.006Z,16.30
2018-04-25T07:51:28.866Z,16.40
2018-04-25T07:53:56.922Z,16.40
2018-04-25T07:56:24.958Z,16.50
2018-04-25T07:58:53.031Z,16.40
2018-04-25T08:01:21.110Z,16.50
2018-04-25T08:03:49.206Z,16.50
2018-04-25T08:06:17.280Z,16.40
2018-04-25T08:08:45.355Z,16.30
2018-04-25T08:11:14.186Z,16.30
2018-04-25T08:13:54.849Z,16.30
2018-04-25T08:16:35.498Z,16.30
2018-04-25T08:19:15.312Z,16.30
2018-04-25T08:21:43.366Z,16.30
2018-04-25T08:24:11.421Z,16.30
2018-04-25T08:26:40.276Z,16.30
2018-04-25T08:29:08.347Z,16.20
2018-04-25T08:31:36.442Z,16.10
2018-04-25T08:34:04.514Z,16.10
2018-04-25T08:36:32.593Z,16.20
2018-04-25T08:39:00.661Z,16.40
2018-04-25T08:41:28.749Z,16.50
2018-04-25T08:43:56.814Z,16.70
2018-04-25T08:46:24.862Z,16.80
2018-04-25T08:48:52.938Z,16.90
2018-04-25T08:51:21.010Z,16.90
2018-04-25T08:53:49.073Z,17.00
2018-04-25T08:56:17.163Z,17.10
2018-04-25T08:58:45.230Z,17.10
2018-04-25T09:01:13.306Z,17.10
2018-04-25T09:03:41.377Z,17.20
2018-04-25T09:06:09.461Z,17.30
2018-04-25T09:08:37.518Z,17.40
2018-04-25T09:11:10.425Z,17.50
2018-04-25T09:13:38.501Z,17.50
2018-04-25T09:16:07.346Z,17.90
2018-04-25T09:18:35.468Z,17.90
2018-04-25T09:21:03.473Z,18.00
2018-04-25T09:23:31.539Z,18.10
2018-04-25T09:25:59.607Z,18.20
2018-04-25T09:28:27.670Z,18.40
2018-04-25T09:30:55.710Z,18.30
2018-04-25T09:33:24.613Z,18.00
2018-04-25T09:35:53.469Z,17.90
2018-04-25T09:38:21.513Z,17.90
2018-04-25T09:40:49.557Z,17.80
2018-04-25T09:43:17.677Z,17.60
2018-04-25T09:45:51.561Z,17.60
2018-04-25T09:48:19.641Z,17.60
2018-04-25T09:50:47.722Z,17.60
2018-04-25T09:53:15.794Z,17.50
2018-04-25T09:55:43.883Z,17.40
2018-04-25T09:58:11.942Z,17.30
2018-04-25T10:00:45.761Z,17.30
2018-04-25T10:03:28.693Z,17.30
2018-04-25T10:05:56.773Z,17.30
2018-04-25T10:08:24.852Z,17.30
2018-04-25T10:10:52.949Z,17.30
2018-04-25T10:13:20.958Z,17.30
2018-04-25T10:15:49.030Z,17.20
2018-04-25T10:18:17.109Z,17.20
2018-04-25T10:20:45.181Z,17.10
2018-04-25T10:23:13.238Z,17.00
2018-04-25T10:25:41.335Z,16.90
2018-04-25T10:28:09.358Z,16.90
2018-04-25T10:30:37.397Z,16.80
2018-04-25T10:33:05.481Z,16.80
2018-04-25T10:35:34.449Z,16.70
2018-04-25T10:38:02.514Z,16.70
2018-04-25T10:40:30.586Z,16.70
2018-04-25T10:42:58.635Z,16.70
2018-04-25T10:45:26.717Z,16.60
2018-04-25T10:47:54.793Z,16.60
2018-04-25T10:50:22.841Z,16.60
2018-04-25T10:52:50.886Z,16.70
2018-04-25T10:55:18.985Z,16.70
2018-04-25T10:57:47.043Z,16.80
2018-04-25T11:00:15.086Z,16.80
2018-04-25T11:02:43.157Z,16.90
2018-04-25T11:05:12.013Z,16.90
2018-04-25T11:07:40.085Z,16.90
2018-04-25T11:10:08.142Z,16.90
2018-04-25T11:12:36.233Z,16.90
2018-04-25T11:15:04.291Z,16.90
2018-04-25T11:17:32.386Z,16.90
2018-04-25T11:20:00.503Z,16.90
2018-04-25T11:22:28.574Z,16.90
2018-04-25T11:24:57.405Z,16.70
2018-04-25T11:27:25.451Z,16.70
2018-04-25T11:29:53.536Z,16.70
2018-04-25T11:32:21.590Z,16.70
2018-04-25T11:34:49.650Z,16.80
2018-04-25T11:37:17.717Z,16.90
2018-04-25T11:39:46.570Z,17.00
2018-04-25T11:42:14.641Z,17.00
2018-04-25T11:44:42.709Z,17.00
2018-04-25T11:47:10.860Z,16.90
2018-04-25T11:49:38.857Z,16.70
2018-04-25T11:52:06.930Z,16.50
2018-04-25T11:54:35.022Z,16.20
2018-04-25T11:57:03.082Z,15.90
2018-04-25T11:59:31.125Z,15.60
2018-04-25T12:01:59.178Z,15.10
2018-04-25T12:04:27.254Z,14.50
2018-04-25T12:06:55.302Z,14.10
2018-04-25T12:09:23.358Z,13.90
2018-04-25T12:11:51.415Z,13.80
2018-04-25T12:14:19.455Z,13.80
2018-04-25T12:16:47.524Z,13.80
2018-04-25T12:19:15.601Z,13.90
2018-04-25T12:21:43.618Z,13.80
2018-04-25T12:24:11.671Z,13.90
2018-04-25T12:26:39.774Z,14.00
2018-04-25T12:29:08.734Z,14.20
2018-04-25T12:31:36.795Z,14.20
2018-04-25T12:34:04.866Z,14.30
2018-04-25T12:36:32.937Z,14.30
2018-04-25T12:39:01.005Z,14.30
2018-04-25T12:41:29.070Z,14.20
2018-04-25T12:43:57.158Z,14.10
2018-04-25T12:46:25.222Z,14.00
2018-04-25T12:48:53.265Z,13.90
2018-04-25T12:51:21.334Z,14.00
2018-04-25T12:53:49.406Z,14.00
2018-04-25T12:56:17.470Z,14.10
2018-04-25T12:58:45.563Z,14.20
2018-04-25T13:01:13.622Z,14.50
2018-04-25T13:03:41.682Z,14.80
2018-04-25T13:06:09.788Z,15.00
2018-04-25T13:08:37.855Z,15.10
2018-04-25T13:11:05.895Z,15.20
2018-04-25T13:13:34.755Z,15.30
2018-04-25T13:16:03.585Z,15.30
2018-04-25T13:18:31.630Z,15.30
2018-04-25T13:20:59.713Z,15.40
2018-04-25T13:23:28.543Z,15.60
2018-04-25T13:25:56.586Z,15.50
2018-04-25T13:28:24.680Z,15.70
2018-04-25T13:30:52.730Z,15.80
2018-04-25T13:33:21.554Z,16.10
2018-04-25T13:35:49.653Z,16.00
2018-04-25T13:38:17.730Z,16.20
2018-04-25T13:40:45.803Z,16.20
2018-04-25T13:43:13.909Z,16.30
2018-04-25T13:45:42.734Z,16.20
2018-04-25T13:48:10.819Z,16.20
2018-04-25T13:50:39.646Z,16.20
2018-04-25T13:53:07.707Z,16.20
2018-04-25T13:55:35.777Z,16.10
2018-04-25T13:58:03.846Z,16.10
2018-04-25T14:00:31.991Z,16.10
2018-04-25T14:03:00.066Z,16.10
2018-04-25T14:05:28.137Z,16.30
2018-04-25T14:07:56.223Z,16.60
2018-04-25T14:10:24.294Z,16.90
2018-04-25T14:12:52.366Z,17.00
2018-04-25T14:15:20.434Z,17.10
2018-04-25T14:17:48.511Z,17.20
2018-04-25T14:20:16.546Z,17.20
2018-04-25T14:22:44.606Z,17.40
2018-04-25T14:25:13.434Z,17.30
2018-04-25T14:27:41.506Z,17.30
2018-04-25T14:30:09.622Z,17.00
2018-04-25T14:32:38.410Z,16.40
2018-04-25T14:35:06.495Z,16.40
2018-04-25T14:37:34.552Z,16.20
2018-04-25T14:40:02.606Z,16.10
2018-04-25T14:42:30.689Z,16.00
2018-04-25T14:44:58.745Z,15.90
2018-04-25T14:47:26.798Z,15.80
2018-04-25T14:49:54.898Z,15.80
2018-04-25T14:52:22.970Z,15.80
2018-04-25T14:54:51.010Z,15.80
2018-04-25T14:57:19.078Z,15.80
2018-04-25T14:59:47.139Z,15.80
2018-04-25T15:02:15.218Z,15.90
2018-04-25T15:04:43.289Z,15.90
2018-04-25T15:07:11.390Z,16.00
2018-04-25T15:09:39.471Z,16.00
2018-04-25T15:12:07.530Z,15.90
2018-04-25T15:14:36.381Z,15.80
2018-04-25T15:17:04.459Z,15.80
2018-04-25T15:19:32.502Z,15.80
2018-04-25T15:22:00.582Z,15.90
2018-04-25T15:24:28.663Z,15.90
2018-04-25T15:26:57.484Z,16.20
2018-04-25T15:29:25.563Z,16.20
2018-04-25T15:31:53.646Z,16.30
2018-04-25T15:34:21.739Z,16.20
2018-04-25T15:36:49.761Z,16.40
2018-04-25T15:39:17.825Z,17.10
2018-04-25T15:41:45.893Z,18.10
2018-04-25T15:44:13.970Z,18.80
2018-04-25T15:46:42.094Z,18.60
2018-04-25T15:49:10.127Z,18.50
2018-04-25T15:51:38.185Z,18.30
2018-04-25T15:54:06.258Z,18.10
2018-04-25T15:56:34.314Z,17.90
2018-04-25T15:59:02.390Z,17.70
2018-04-25T16:01:30.485Z,17.50
2018-04-25T16:03:58.558Z,17.40
2018-04-25T16:06:26.614Z,17.30
2018-04-25T16:08:54.703Z,17.20
2018-04-25T16:11:22.782Z,17.00
2018-04-25T16:13:50.858Z,16.80
2018-04-25T16:16:18.921Z,16.90
2018-04-25T16:18:46.981Z,16.80
2018-04-25T16:21:15.087Z,16.90
2018-04-25T16:23:43.148Z,16.80
2018-04-25T16:26:11.201Z,16.80
2018-04-25T16:28:39.241Z,16.80
2018-04-25T16:31:07.319Z,16.70
2018-04-25T16:33:35.390Z,16.60
2018-04-25T16:36:04.259Z,16.60
2018-04-25T16:38:32.294Z,16.60
2018-04-25T16:41:00.333Z,16.70
2018-04-25T16:43:29.159Z,16.70
2018-04-25T16:45:57.245Z,16.60
2018-04-25T16:48:25.314Z,16.60
2018-04-25T16:50:53.347Z,16.40
2018-04-25T16:53:21.437Z,16.40
2018-04-25T16:55:49.501Z,16.30
2018-04-25T16:58:17.561Z,16.30
2018-04-25T17:00:45.618Z,16.30
2018-04-25T17:03:13.674Z,16.10
2018-04-25T17:05:41.750Z,16.00
2018-04-25T17:08:09.814Z,16.00
2018-04-25T17:10:37.878Z,16.00
2018-04-25T17:13:05.915Z,16.00
2018-04-25T17:15:33.998Z,15.90
2018-04-25T17:18:02.065Z,15.80
2018-04-25T17:20:30.199Z,15.80
2018-04-25T17:22:58.319Z,15.80
2018-04-25T17:25:26.359Z,15.80
2018-04-25T17:27:54.381Z,15.70
2018-04-25T17:30:22.438Z,15.70
2018-04-25T17:32:50.515Z,15.70
2018-04-25T17:35:18.577Z,15.60
2018-04-25T17:37:46.665Z,15.60
2018-04-25T17:40:14.733Z,15.60
2018-04-25T17:42:42.826Z,15.60
2018-04-25T17:45:10.895Z,15.60
2018-04-25T17:47:38.953Z,15.60
2018-04-25T17:50:07.008Z,15.50
2018-04-25T17:52:37.390Z,15.40
2018-04-25T17:55:07.425Z,15.40
2018-04-25T17:57:35.848Z,15.30
2018-04-25T18:00:03.898Z,15.30
2018-04-25T18:02:32.624Z,15.30
2018-04-25T18:05:01.298Z,15.20
2018-04-25T18:07:29.518Z,15.20
2018-04-25T18:09:59.058Z,15.10
2018-04-25T18:12:27.135Z,15.00
2018-04-25T18:14:55.189Z,15.00
2018-04-25T18:17:23.269Z,15.00
2018-04-25T18:19:51.352Z,15.00
2018-04-25T18:22:19.434Z,15.00
2018-04-25T18:24:47.515Z,15.00
2018-04-25T18:27:15.582Z,15.00
2018-04-25T18:29:43.658Z,14.90
2018-04-25T18:32:11.702Z,14.80
2018-04-25T18:34:40.599Z,14.80
2018-04-25T18:37:09.100Z,14.80
2018-04-25T18:39:37.101Z,14.80
2018-04-25T18:42:05.172Z,14.80
2018-04-25T18:44:33.250Z,14.70
2018-04-25T18:47:01.318Z,14.70
2018-04-25T18:49:29.450Z,14.70
2018-04-25T18:51:57.498Z,14.60
2018-04-25T18:54:25.577Z,14.60
2018-04-25T18:56:53.634Z,14.50
2018-04-25T18:59:22.471Z,14.30
2018-04-25T19:01:50.545Z,14.30
2018-04-25T19:04:18.607Z,14.30
2018-04-25T19:06:46.654Z,14.20
2018-04-25T19:09:14.758Z,14.10
2018-04-25T19:11:42.832Z,14.00
2018-04-25T19:14:11.149Z,13.90
2018-04-25T19:16:39.214Z,13.80
2018-04-25T19:19:07.276Z,13.70
2018-04-25T19:21:35.389Z,13.70
2018-04-25T19:24:03.628Z,13.70
2018-04-25T19:26:31.723Z,13.60
2018-04-25T19:28:59.794Z,13.60
2018-04-25T19:31:27.895Z,13.50
2018-04-25T19:33:55.958Z,13.50
2018-04-25T19:36:24.408Z,13.50
2018-04-25T19:38:52.533Z,13.50
2018-04-25T19:41:20.618Z,13.50
2018-04-25T19:43:48.678Z,13.50
2018-04-25T19:46:16.748Z,13.50
2018-04-25T19:48:44.790Z,13.40
2018-04-25T19:51:12.909Z,13.40
2018-04-25T19:53:41.069Z,13.50
2018-04-25T19:56:09.130Z,13.50
2018-04-25T19:58:37.233Z,13.50
2018-04-25T20:01:05.302Z,13.50
2018-04-25T20:03:33.366Z,13.50
2018-04-25T20:06:01.428Z,13.50
2018-04-25T20:08:29.559Z,13.50
2018-04-25T20:10:57.573Z,13.50
2018-04-25T20:13:25.629Z,13.60
2018-04-25T20:15:53.685Z,13.60
2018-04-25T20:18:22.524Z,13.50
2018-04-25T20:20:50.599Z,13.50
2018-04-25T20:23:18.670Z,13.40
2018-04-25T20:25:46.725Z,13.40
2018-04-25T20:28:14.798Z,13.30
2018-04-25T20:30:42.893Z,13.30
2018-04-25T20:33:10.969Z,13.30
2018-04-25T20:35:39.799Z,13.30
2018-04-25T20:38:08.640Z,13.30
2018-04-25T20:40:36.705Z,13.30
2018-04-25T20:43:04.769Z,13.30
2018-04-25T20:45:32.889Z,13.30
2018-04-25T20:48:00.940Z,13.30
2018-04-25T20:50:29.768Z,13.30
2018-04-25T20:52:58.685Z,13.40
2018-04-25T20:55:26.746Z,13.30
2018-04-25T20:57:54.970Z,13.30
2018-04-25T21:00:23.113Z,13.40
2018-04-25T21:02:51.294Z,13.40
2018-04-25T21:05:19.388Z,13.30
2018-04-25T21:07:47.496Z,13.30
2018-04-25T21:10:15.725Z,13.20
2018-04-25T21:12:43.807Z,13.30
2018-04-25T21:15:11.891Z,13.30
2018-04-25T21:17:39.987Z,13.30
2018-04-25T21:20:08.107Z,13.30
2018-04-25T21:22:36.194Z,13.30
2018-04-25T21:25:04.415Z,13.20
2018-04-25T21:27:32.527Z,13.20
2018-04-25T21:30:00.649Z,13.20
2018-04-25T21:32:28.830Z,13.30
2018-04-25T21:34:57.654Z,13.30
2018-04-25T21:37:25.735Z,13.30
2018-04-25T21:39:53.786Z,13.30
2018-04-25T21:42:21.853Z,13.30
2018-04-25T21:44:49.958Z,13.30
2018-04-25T21:47:18.010Z,13.30
2018-04-25T21:49:46.105Z,13.20
2018-04-25T21:52:14.213Z,13.10
2018-04-25T21:54:42.289Z,12.90
2018-04-25T21:57:10.351Z,12.80
2018-04-25T21:59:38.420Z,12.70
2018-04-25T22:02:06.490Z,12.60
2018-04-25T22:04:34.535Z,12.50
2018-04-25T22:07:02.603Z,12.50
2018-04-25T22:09:30.706Z,12.40
2018-04-25T22:11:59.517Z,12.30
2018-04-25T22:14:27.675Z,12.20
2018-04-25T22:16:55.737Z,12.30
2018-04-25T22:19:23.786Z,12.20
2018-04-25T22:21:51.851Z,12.20
2018-04-25T22:24:19.914Z,12.20
2018-04-25T22:26:48.007Z,12.10
2018-04-25T22:29:16.061Z,12.00
2018-04-25T22:31:44.126Z,12.00
2018-04-25T22:34:12.198Z,12.00
2018-04-25T22:36:40.288Z,11.90
2018-04-25T22:39:08.352Z,11.90
2018-04-25T22:41:36.384Z,11.80
2018-04-25T22:44:04.442Z,11.80
2018-04-25T22:46:32.507Z,11.70
2018-04-25T22:49:00.559Z,11.70
2018-04-25T22:51:29.398Z,11.50
2018-04-25T22:53:57.501Z,11.50
2018-04-25T22:56:25.583Z,11.50
2018-04-25T22:58:53.633Z,11.50
2018-04-25T23:01:21.714Z,11.40
2018-04-25T23:03:49.798Z,11.30
2018-04-25T23:06:17.854Z,11.40
2018-04-25T23:08:45.944Z,11.40
2018-04-25T23:11:14.002Z,11.40
2018-04-25T23:13:42.055Z,11.40
2018-04-25T23:16:10.145Z,11.50
2018-04-25T23:18:38.197Z,11.50
2018-04-25T23:21:06.266Z,11.40
2018-04-25T23:23:34.339Z,11.40
2018-04-25T23:26:02.426Z,11.30
2018-04-25T23:28:30.492Z,11.30
2018-04-25T23:30:58.574Z,11.30
2018-04-25T23:33:26.646Z,11.30
2018-04-25T23:35:54.725Z,11.30
2018-04-25T23:38:23.566Z,11.30
2018-04-25T23:40:51.639Z,11.20
2018-04-25T23:43:19.698Z,11.20
2018-04-25T23:45:47.754Z,11.20
2018-04-25T23:48:15.806Z,11.20
2018-04-25T23:50:43.906Z,11.20
2018-04-25T23:53:11.958Z,11.20
2018-04-25T23:55:40.034Z,11.20
2018-04-25T23:58:08.102Z,11.10
